sensor_id;sensor_type;location;lat;lon;timestamp;P1;durP1;ratioP1;P2;durP2;ratioP2
73283;SDS011;61519;60.050;18.582;2024-03-02T00:00:05;13.23;;;6.97;;
73283;SDS011;61519;60.050;18.582;2024-03-02T00:02:43;15.15;;;7.55;;
73283;SDS011;61519;60.050;18.582;2024-03-02T00:05:16;16.27;;;6.53;;
73283;SDS011;61519;60.050;18.582;2024-03-02T00:07:43;16.23;;;7.13;;
73283;SDS011;61519;60.050;18.582;2024-03-02T00:10:11;19.30;;;6.63;;
73283;SDS011;61519;60.050;18.582;2024-03-02T00:12:41;18.00;;;6.53;;
73283;SDS011;61519;60.050;18.582;2024-03-02T00:18:20;19.50;;;6.57;;
73283;SDS011;61519;60.050;18.582;2024-03-02T00:20:49;12.27;;;6.13;;
73283;SDS011;61519;60.050;18.582;2024-03-02T00:23:18;19.10;;;7.63;;
73283;SDS011;61519;60.050;18.582;2024-03-02T00:25:47;17.35;;;6.97;;
73283;SDS011;61519;60.050;18.582;2024-03-02T00:33:10;13.77;;;6.35;;
73283;SDS011;61519;60.050;18.582;2024-03-02T00:35:35;17.20;;;7.23;;
73283;SDS011;61519;60.050;18.582;2024-03-02T00:38:03;17.85;;;7.72;;
73283;SDS011;61519;60.050;18.582;2024-03-02T00:40:32;21.50;;;7.75;;
73283;SDS011;61519;60.050;18.582;2024-03-02T00:42:57;14.75;;;6.50;;
73283;SDS011;61519;60.050;18.582;2024-03-02T00:45:24;18.58;;;7.22;;
73283;SDS011;61519;60.050;18.582;2024-03-02T00:47:50;16.23;;;6.43;;
73283;SDS011;61519;60.050;18.582;2024-03-02T00:50:16;16.98;;;7.10;;
73283;SDS011;61519;60.050;18.582;2024-03-02T00:52:42;21.17;;;7.10;;
73283;SDS011;61519;60.050;18.582;2024-03-02T00:55:08;22.10;;;7.97;;
73283;SDS011;61519;60.050;18.582;2024-03-02T00:57:33;15.13;;;6.93;;
73283;SDS011;61519;60.050;18.582;2024-03-02T00:59:59;17.83;;;6.97;;
73283;SDS011;61519;60.050;18.582;2024-03-02T01:02:25;17.13;;;6.65;;
73283;SDS011;61519;60.050;18.582;2024-03-02T01:04:51;16.93;;;7.10;;
73283;SDS011;61519;60.050;18.582;2024-03-02T01:07:17;18.48;;;7.60;;
73283;SDS011;61519;60.050;18.582;2024-03-02T01:09:42;15.83;;;7.17;;
73283;SDS011;61519;60.050;18.582;2024-03-02T01:12:08;22.00;;;7.60;;
73283;SDS011;61519;60.050;18.582;2024-03-02T01:14:33;17.97;;;7.90;;
73283;SDS011;61519;60.050;18.582;2024-03-02T01:16:59;19.08;;;7.47;;
73283;SDS011;61519;60.050;18.582;2024-03-02T01:19:28;14.20;;;7.60;;
73283;SDS011;61519;60.050;18.582;2024-03-02T01:21:53;17.63;;;7.63;;
73283;SDS011;61519;60.050;18.582;2024-03-02T01:24:19;20.27;;;7.97;;
73283;SDS011;61519;60.050;18.582;2024-03-02T01:26:44;18.07;;;8.90;;
73283;SDS011;61519;60.050;18.582;2024-03-02T01:29:09;15.90;;;7.83;;
73283;SDS011;61519;60.050;18.582;2024-03-02T01:31:35;16.63;;;7.77;;
73283;SDS011;61519;60.050;18.582;2024-03-02T01:34:00;19.30;;;8.13;;
73283;SDS011;61519;60.050;18.582;2024-03-02T01:36:25;17.53;;;7.77;;
73283;SDS011;61519;60.050;18.582;2024-03-02T01:38:51;18.17;;;8.50;;
73283;SDS011;61519;60.050;18.582;2024-03-02T01:41:16;15.80;;;7.25;;
73283;SDS011;61519;60.050;18.582;2024-03-02T01:43:42;19.40;;;8.60;;
73283;SDS011;61519;60.050;18.582;2024-03-02T01:46:07;17.47;;;8.10;;
73283;SDS011;61519;60.050;18.582;2024-03-02T01:48:32;16.07;;;7.07;;
73283;SDS011;61519;60.050;18.582;2024-03-02T01:50:59;18.45;;;7.22;;
73283;SDS011;61519;60.050;18.582;2024-03-02T01:53:24;19.10;;;8.37;;
73283;SDS011;61519;60.050;18.582;2024-03-02T01:55:50;18.63;;;7.43;;
73283;SDS011;61519;60.050;18.582;2024-03-02T01:58:15;21.73;;;8.87;;
73283;SDS011;61519;60.050;18.582;2024-03-02T02:00:41;17.23;;;8.35;;
73283;SDS011;61519;60.050;18.582;2024-03-02T02:03:06;18.90;;;7.77;;
73283;SDS011;61519;60.050;18.582;2024-03-02T02:05:32;19.10;;;8.10;;
73283;SDS011;61519;60.050;18.582;2024-03-02T02:08:00;21.85;;;8.57;;
73283;SDS011;61519;60.050;18.582;2024-03-02T02:10:26;17.17;;;8.50;;
73283;SDS011;61519;60.050;18.582;2024-03-02T02:12:51;23.73;;;8.70;;
73283;SDS011;61519;60.050;18.582;2024-03-02T02:15:30;20.38;;;8.48;;
73283;SDS011;61519;60.050;18.582;2024-03-02T02:17:56;18.55;;;8.80;;
73283;SDS011;61519;60.050;18.582;2024-03-02T02:20:22;19.08;;;9.38;;
73283;SDS011;61519;60.050;18.582;2024-03-02T02:22:55;24.50;;;8.80;;
73283;SDS011;61519;60.050;18.582;2024-03-02T02:25:28;18.40;;;7.73;;
73283;SDS011;61519;60.050;18.582;2024-03-02T02:27:54;15.40;;;7.65;;
73283;SDS011;61519;60.050;18.582;2024-03-02T02:30:24;21.77;;;8.50;;
73283;SDS011;61519;60.050;18.582;2024-03-02T02:32:50;23.33;;;8.45;;
73283;SDS011;61519;60.050;18.582;2024-03-02T02:35:16;22.27;;;8.67;;
73283;SDS011;61519;60.050;18.582;2024-03-02T02:37:41;22.00;;;8.00;;
73283;SDS011;61519;60.050;18.582;2024-03-02T02:40:08;18.23;;;8.65;;
73283;SDS011;61519;60.050;18.582;2024-03-02T02:42:34;22.60;;;8.25;;
73283;SDS011;61519;60.050;18.582;2024-03-02T02:44:59;22.00;;;8.50;;
73283;SDS011;61519;60.050;18.582;2024-03-02T02:47:25;20.47;;;8.93;;
73283;SDS011;61519;60.050;18.582;2024-03-02T02:49:51;16.42;;;8.20;;
73283;SDS011;61519;60.050;18.582;2024-03-02T02:52:16;23.43;;;9.20;;
73283;SDS011;61519;60.050;18.582;2024-03-02T02:54:42;24.52;;;8.80;;
73283;SDS011;61519;60.050;18.582;2024-03-02T02:57:08;23.17;;;8.83;;
73283;SDS011;61519;60.050;18.582;2024-03-02T02:59:35;19.87;;;8.47;;
73283;SDS011;61519;60.050;18.582;2024-03-02T03:02:01;19.02;;;8.15;;
73283;SDS011;61519;60.050;18.582;2024-03-02T03:04:26;20.93;;;9.37;;
73283;SDS011;61519;60.050;18.582;2024-03-02T03:06:51;19.93;;;8.20;;
73283;SDS011;61519;60.050;18.582;2024-03-02T03:09:17;22.03;;;8.53;;
73283;SDS011;61519;60.050;18.582;2024-03-02T03:11:42;18.10;;;8.50;;
73283;SDS011;61519;60.050;18.582;2024-03-02T03:14:07;15.67;;;7.57;;
73283;SDS011;61519;60.050;18.582;2024-03-02T03:16:33;21.52;;;8.50;;
73283;SDS011;61519;60.050;18.582;2024-03-02T03:18:58;17.75;;;8.10;;
73283;SDS011;61519;60.050;18.582;2024-03-02T03:21:26;25.40;;;8.53;;
73283;SDS011;61519;60.050;18.582;2024-03-02T03:23:51;20.37;;;8.80;;
73283;SDS011;61519;60.050;18.582;2024-03-02T03:26:17;15.95;;;7.97;;
73283;SDS011;61519;60.050;18.582;2024-03-02T03:28:42;21.37;;;8.93;;
73283;SDS011;61519;60.050;18.582;2024-03-02T03:31:08;17.47;;;9.13;;
73283;SDS011;61519;60.050;18.582;2024-03-02T03:33:33;20.80;;;8.63;;
73283;SDS011;61519;60.050;18.582;2024-03-02T03:35:59;17.77;;;7.82;;
73283;SDS011;61519;60.050;18.582;2024-03-02T03:38:25;18.23;;;8.17;;
73283;SDS011;61519;60.050;18.582;2024-03-02T03:40:50;20.73;;;8.67;;
73283;SDS011;61519;60.050;18.582;2024-03-02T03:43:15;17.83;;;8.40;;
73283;SDS011;61519;60.050;18.582;2024-03-02T03:45:41;20.53;;;8.10;;
73283;SDS011;61519;60.050;18.582;2024-03-02T03:48:06;20.67;;;8.93;;
73283;SDS011;61519;60.050;18.582;2024-03-02T03:50:34;26.20;;;9.13;;
73283;SDS011;61519;60.050;18.582;2024-03-02T03:53:02;19.45;;;8.13;;
73283;SDS011;61519;60.050;18.582;2024-03-02T03:55:27;19.10;;;8.18;;
73283;SDS011;61519;60.050;18.582;2024-03-02T03:57:53;22.73;;;7.83;;
73283;SDS011;61519;60.050;18.582;2024-03-02T04:00:18;22.40;;;8.67;;
73283;SDS011;61519;60.050;18.582;2024-03-02T04:02:44;21.57;;;7.63;;
73283;SDS011;61519;60.050;18.582;2024-03-02T04:05:09;22.70;;;9.00;;
73283;SDS011;61519;60.050;18.582;2024-03-02T04:07:38;17.50;;;8.18;;
73283;SDS011;61519;60.050;18.582;2024-03-02T04:10:08;18.23;;;7.85;;
73283;SDS011;61519;60.050;18.582;2024-03-02T04:12:35;20.17;;;7.68;;
73283;SDS011;61519;60.050;18.582;2024-03-02T04:15:04;17.33;;;7.67;;
73283;SDS011;61519;60.050;18.582;2024-03-02T04:17:31;19.15;;;7.95;;
73283;SDS011;61519;60.050;18.582;2024-03-02T04:19:58;16.58;;;7.68;;
73283;SDS011;61519;60.050;18.582;2024-03-02T04:22:27;17.15;;;7.88;;
73283;SDS011;61519;60.050;18.582;2024-03-02T04:24:52;15.50;;;8.00;;
73283;SDS011;61519;60.050;18.582;2024-03-02T04:27:18;17.97;;;7.70;;
73283;SDS011;61519;60.050;18.582;2024-03-02T04:29:43;17.23;;;7.57;;
73283;SDS011;61519;60.050;18.582;2024-03-02T04:32:09;16.45;;;6.40;;
73283;SDS011;61519;60.050;18.582;2024-03-02T04:34:34;21.37;;;8.77;;
73283;SDS011;61519;60.050;18.582;2024-03-02T04:37:00;17.80;;;7.93;;
73283;SDS011;61519;60.050;18.582;2024-03-02T04:39:25;21.33;;;8.13;;
73283;SDS011;61519;60.050;18.582;2024-03-02T04:41:51;18.15;;;7.70;;
73283;SDS011;61519;60.050;18.582;2024-03-02T04:44:16;18.30;;;7.40;;
73283;SDS011;61519;60.050;18.582;2024-03-02T04:46:42;18.77;;;8.17;;
73283;SDS011;61519;60.050;18.582;2024-03-02T04:49:07;18.60;;;8.10;;
73283;SDS011;61519;60.050;18.582;2024-03-02T04:51:33;15.40;;;7.40;;
73283;SDS011;61519;60.050;18.582;2024-03-02T04:53:59;16.80;;;7.75;;
73283;SDS011;61519;60.050;18.582;2024-03-02T04:56:24;20.65;;;7.53;;
73283;SDS011;61519;60.050;18.582;2024-03-02T04:59:09;18.67;;;8.18;;
73283;SDS011;61519;60.050;18.582;2024-03-02T05:01:35;18.13;;;7.72;;
73283;SDS011;61519;60.050;18.582;2024-03-02T05:04:01;21.60;;;7.00;;
73283;SDS011;61519;60.050;18.582;2024-03-02T05:06:26;16.27;;;7.43;;
73283;SDS011;61519;60.050;18.582;2024-03-02T05:08:52;17.87;;;7.17;;
73283;SDS011;61519;60.050;18.582;2024-03-02T05:11:17;19.90;;;6.93;;
73283;SDS011;61519;60.050;18.582;2024-03-02T05:14:11;16.48;;;6.85;;
73283;SDS011;61519;60.050;18.582;2024-03-02T05:16:37;16.50;;;7.70;;
73283;SDS011;61519;60.050;18.582;2024-03-02T05:19:03;19.83;;;8.13;;
73283;SDS011;61519;60.050;18.582;2024-03-02T05:21:31;18.13;;;7.30;;
73283;SDS011;61519;60.050;18.582;2024-03-02T05:23:57;16.10;;;7.37;;
73283;SDS011;61519;60.050;18.582;2024-03-02T05:26:22;16.63;;;6.95;;
73283;SDS011;61519;60.050;18.582;2024-03-02T05:28:47;18.40;;;7.65;;
73283;SDS011;61519;60.050;18.582;2024-03-02T05:31:15;21.50;;;7.73;;
73283;SDS011;61519;60.050;18.582;2024-03-02T05:33:41;16.40;;;7.37;;
73283;SDS011;61519;60.050;18.582;2024-03-02T05:36:07;16.75;;;6.75;;
73283;SDS011;61519;60.050;18.582;2024-03-02T05:38:36;18.57;;;6.60;;
73283;SDS011;61519;60.050;18.582;2024-03-02T05:41:01;16.63;;;7.22;;
73283;SDS011;61519;60.050;18.582;2024-03-02T05:43:27;16.70;;;7.27;;
73283;SDS011;61519;60.050;18.582;2024-03-02T05:45:52;13.55;;;7.07;;
73283;SDS011;61519;60.050;18.582;2024-03-02T05:48:17;18.37;;;6.90;;
73283;SDS011;61519;60.050;18.582;2024-03-02T05:50:43;18.83;;;7.67;;
73283;SDS011;61519;60.050;18.582;2024-03-02T05:53:08;15.13;;;6.47;;
73283;SDS011;61519;60.050;18.582;2024-03-02T05:55:34;16.30;;;6.63;;
73283;SDS011;61519;60.050;18.582;2024-03-02T05:57:59;18.58;;;7.85;;
73283;SDS011;61519;60.050;18.582;2024-03-02T06:00:31;16.50;;;7.20;;
73283;SDS011;61519;60.050;18.582;2024-03-02T06:02:56;18.17;;;7.25;;
73283;SDS011;61519;60.050;18.582;2024-03-02T06:05:22;14.53;;;6.13;;
73283;SDS011;61519;60.050;18.582;2024-03-02T06:07:47;17.47;;;7.10;;
73283;SDS011;61519;60.050;18.582;2024-03-02T06:10:13;17.30;;;7.20;;
73283;SDS011;61519;60.050;18.582;2024-03-02T06:12:39;18.85;;;6.70;;
73283;SDS011;61519;60.050;18.582;2024-03-02T06:15:05;16.57;;;7.30;;
73283;SDS011;61519;60.050;18.582;2024-03-02T06:17:30;15.25;;;6.35;;
73283;SDS011;61519;60.050;18.582;2024-03-02T06:19:55;14.83;;;6.20;;
73283;SDS011;61519;60.050;18.582;2024-03-02T06:22:21;11.67;;;6.03;;
73283;SDS011;61519;60.050;18.582;2024-03-02T06:24:49;13.68;;;6.13;;
73283;SDS011;61519;60.050;18.582;2024-03-02T06:27:15;15.03;;;5.67;;
73283;SDS011;61519;60.050;18.582;2024-03-02T06:29:40;13.23;;;6.13;;
73283;SDS011;61519;60.050;18.582;2024-03-02T06:32:06;13.00;;;5.90;;
73283;SDS011;61519;60.050;18.582;2024-03-02T06:34:31;15.20;;;6.13;;
73283;SDS011;61519;60.050;18.582;2024-03-02T06:36:56;18.43;;;6.93;;
73283;SDS011;61519;60.050;18.582;2024-03-02T06:39:22;12.18;;;5.63;;
73283;SDS011;61519;60.050;18.582;2024-03-02T06:41:47;17.38;;;6.90;;
73283;SDS011;61519;60.050;18.582;2024-03-02T06:44:12;16.07;;;6.13;;
73283;SDS011;61519;60.050;18.582;2024-03-02T06:46:38;14.07;;;5.87;;
73283;SDS011;61519;60.050;18.582;2024-03-02T06:49:04;14.23;;;5.97;;
73283;SDS011;61519;60.050;18.582;2024-03-02T06:51:29;14.07;;;5.85;;
73283;SDS011;61519;60.050;18.582;2024-03-02T06:53:55;12.53;;;5.77;;
73283;SDS011;61519;60.050;18.582;2024-03-02T06:56:20;11.43;;;5.37;;
73283;SDS011;61519;60.050;18.582;2024-03-02T06:58:46;18.85;;;6.97;;
73283;SDS011;61519;60.050;18.582;2024-03-02T07:01:12;14.60;;;6.57;;
73283;SDS011;61519;60.050;18.582;2024-03-02T07:03:37;19.23;;;5.73;;
73283;SDS011;61519;60.050;18.582;2024-03-02T07:06:05;14.68;;;6.47;;
73283;SDS011;61519;60.050;18.582;2024-03-02T07:08:30;13.43;;;6.63;;
73283;SDS011;61519;60.050;18.582;2024-03-02T07:10:56;15.90;;;5.85;;
73283;SDS011;61519;60.050;18.582;2024-03-02T07:13:22;15.10;;;6.13;;
73283;SDS011;61519;60.050;18.582;2024-03-02T07:15:47;12.23;;;5.90;;
73283;SDS011;61519;60.050;18.582;2024-03-02T07:18:28;13.02;;;6.07;;
73283;SDS011;61519;60.050;18.582;2024-03-02T07:20:54;12.70;;;6.10;;
73283;SDS011;61519;60.050;18.582;2024-03-02T07:23:20;12.63;;;5.75;;
73283;SDS011;61519;60.050;18.582;2024-03-02T07:25:49;15.32;;;6.15;;
73283;SDS011;61519;60.050;18.582;2024-03-02T07:28:15;11.60;;;5.70;;
73283;SDS011;61519;60.050;18.582;2024-03-02T07:30:41;12.70;;;5.45;;
73283;SDS011;61519;60.050;18.582;2024-03-02T07:33:06;14.80;;;6.33;;
73283;SDS011;61519;60.050;18.582;2024-03-02T07:35:31;15.93;;;6.07;;
73283;SDS011;61519;60.050;18.582;2024-03-02T07:37:57;16.50;;;6.60;;
73283;SDS011;61519;60.050;18.582;2024-03-02T07:40:23;16.37;;;5.70;;
73283;SDS011;61519;60.050;18.582;2024-03-02T07:42:50;14.02;;;6.10;;
73283;SDS011;61519;60.050;18.582;2024-03-02T07:45:15;10.43;;;5.40;;
73283;SDS011;61519;60.050;18.582;2024-03-02T07:47:41;13.90;;;5.60;;
73283;SDS011;61519;60.050;18.582;2024-03-02T07:50:06;12.07;;;5.40;;
73283;SDS011;61519;60.050;18.582;2024-03-02T07:52:32;13.30;;;5.38;;
73283;SDS011;61519;60.050;18.582;2024-03-02T07:54:58;10.90;;;5.38;;
73283;SDS011;61519;60.050;18.582;2024-03-02T07:57:23;15.43;;;5.88;;
73283;SDS011;61519;60.050;18.582;2024-03-02T07:59:49;15.73;;;5.60;;
73283;SDS011;61519;60.050;18.582;2024-03-02T08:02:14;15.57;;;6.00;;
73283;SDS011;61519;60.050;18.582;2024-03-02T08:04:40;12.13;;;5.78;;
73283;SDS011;61519;60.050;18.582;2024-03-02T08:07:06;12.93;;;6.03;;
73283;SDS011;61519;60.050;18.582;2024-03-02T08:09:31;17.20;;;5.77;;
73283;SDS011;61519;60.050;18.582;2024-03-02T08:11:57;13.68;;;5.57;;
73283;SDS011;61519;60.050;18.582;2024-03-02T08:14:23;11.10;;;5.22;;
73283;SDS011;61519;60.050;18.582;2024-03-02T08:16:48;12.55;;;5.50;;
73283;SDS011;61519;60.050;18.582;2024-03-02T08:19:14;12.70;;;5.23;;
73283;SDS011;61519;60.050;18.582;2024-03-02T08:21:40;11.60;;;5.22;;
73283;SDS011;61519;60.050;18.582;2024-03-02T08:24:06;11.03;;;5.03;;
73283;SDS011;61519;60.050;18.582;2024-03-02T08:26:32;12.65;;;4.90;;
73283;SDS011;61519;60.050;18.582;2024-03-02T08:28:58;10.90;;;5.77;;
73283;SDS011;61519;60.050;18.582;2024-03-02T08:31:24;13.13;;;6.00;;
73283;SDS011;61519;60.050;18.582;2024-03-02T08:33:49;11.17;;;5.10;;
73283;SDS011;61519;60.050;18.582;2024-03-02T08:36:14;12.57;;;5.30;;
73283;SDS011;61519;60.050;18.582;2024-03-02T08:38:40;9.85;;;4.93;;
73283;SDS011;61519;60.050;18.582;2024-03-02T08:41:06;13.23;;;4.95;;
73283;SDS011;61519;60.050;18.582;2024-03-02T08:43:32;12.23;;;5.25;;
73283;SDS011;61519;60.050;18.582;2024-03-02T08:45:57;11.73;;;4.78;;
73283;SDS011;61519;60.050;18.582;2024-03-02T08:48:23;10.70;;;4.77;;
73283;SDS011;61519;60.050;18.582;2024-03-02T08:50:48;10.60;;;4.90;;
73283;SDS011;61519;60.050;18.582;2024-03-02T08:53:14;15.23;;;5.50;;
73283;SDS011;61519;60.050;18.582;2024-03-02T08:55:43;11.93;;;4.80;;
73283;SDS011;61519;60.050;18.582;2024-03-02T08:58:10;14.13;;;5.63;;
73283;SDS011;61519;60.050;18.582;2024-03-02T09:00:35;14.07;;;5.13;;
73283;SDS011;61519;60.050;18.582;2024-03-02T09:03:00;12.23;;;5.20;;
73283;SDS011;61519;60.050;18.582;2024-03-02T09:05:26;12.37;;;5.10;;
73283;SDS011;61519;60.050;18.582;2024-03-02T09:07:51;13.03;;;5.07;;
73283;SDS011;61519;60.050;18.582;2024-03-02T09:10:16;10.20;;;4.87;;
73283;SDS011;61519;60.050;18.582;2024-03-02T09:12:42;10.70;;;4.90;;
73283;SDS011;61519;60.050;18.582;2024-03-02T09:15:08;10.35;;;5.20;;
73283;SDS011;61519;60.050;18.582;2024-03-02T09:17:33;10.48;;;5.10;;
73283;SDS011;61519;60.050;18.582;2024-03-02T09:19:59;10.27;;;5.13;;
73283;SDS011;61519;60.050;18.582;2024-03-02T09:22:24;10.13;;;5.60;;
73283;SDS011;61519;60.050;18.582;2024-03-02T09:24:50;13.63;;;5.20;;
73283;SDS011;61519;60.050;18.582;2024-03-02T09:27:15;13.90;;;5.13;;
73283;SDS011;61519;60.050;18.582;2024-03-02T09:29:40;11.63;;;5.10;;
73283;SDS011;61519;60.050;18.582;2024-03-02T09:32:06;8.73;;;4.80;;
73283;SDS011;61519;60.050;18.582;2024-03-02T09:34:33;10.43;;;5.05;;
73283;SDS011;61519;60.050;18.582;2024-03-02T09:36:59;13.33;;;5.43;;
73283;SDS011;61519;60.050;18.582;2024-03-02T09:39:24;13.13;;;5.25;;
73283;SDS011;61519;60.050;18.582;2024-03-02T09:41:52;10.83;;;5.30;;
73283;SDS011;61519;60.050;18.582;2024-03-02T09:44:19;9.95;;;4.97;;
73283;SDS011;61519;60.050;18.582;2024-03-02T09:46:48;13.13;;;5.95;;
73283;SDS011;61519;60.050;18.582;2024-03-02T09:49:14;14.73;;;5.32;;
73283;SDS011;61519;60.050;18.582;2024-03-02T09:51:39;12.80;;;5.10;;
73283;SDS011;61519;60.050;18.582;2024-03-02T09:54:08;12.23;;;5.57;;
73283;SDS011;61519;60.050;18.582;2024-03-02T09:56:34;10.55;;;5.10;;
73283;SDS011;61519;60.050;18.582;2024-03-02T09:58:59;9.67;;;5.07;;
73283;SDS011;61519;60.050;18.582;2024-03-02T10:01:24;11.10;;;5.13;;
73283;SDS011;61519;60.050;18.582;2024-03-02T10:03:50;10.73;;;5.43;;
73283;SDS011;61519;60.050;18.582;2024-03-02T10:08:45;14.05;;;5.53;;
73283;SDS011;61519;60.050;18.582;2024-03-02T10:11:10;11.43;;;5.38;;
73283;SDS011;61519;60.050;18.582;2024-03-02T10:13:36;10.90;;;5.50;;
73283;SDS011;61519;60.050;18.582;2024-03-02T10:16:11;9.33;;;4.47;;
73283;SDS011;61519;60.050;18.582;2024-03-02T10:18:37;11.90;;;4.68;;
73283;SDS011;61519;60.050;18.582;2024-03-02T10:21:36;10.25;;;4.82;;
73283;SDS011;61519;60.050;18.582;2024-03-02T10:23:54;14.40;;;5.43;;
73283;SDS011;61519;60.050;18.582;2024-03-02T10:26:32;11.35;;;4.85;;
73283;SDS011;61519;60.050;18.582;2024-03-02T10:28:57;15.77;;;5.53;;
73283;SDS011;61519;60.050;18.582;2024-03-02T10:31:24;11.27;;;4.78;;
73283;SDS011;61519;60.050;18.582;2024-03-02T10:33:53;12.27;;;4.70;;
73283;SDS011;61519;60.050;18.582;2024-03-02T10:36:19;9.03;;;4.53;;
73283;SDS011;61519;60.050;18.582;2024-03-02T10:38:45;8.38;;;4.47;;
73283;SDS011;61519;60.050;18.582;2024-03-02T10:41:16;13.05;;;4.60;;
73283;SDS011;61519;60.050;18.582;2024-03-02T10:43:43;11.37;;;4.60;;
73283;SDS011;61519;60.050;18.582;2024-03-02T10:46:08;12.18;;;4.53;;
73283;SDS011;61519;60.050;18.582;2024-03-02T10:48:36;13.27;;;5.00;;
73283;SDS011;61519;60.050;18.582;2024-03-02T10:51:04;13.52;;;5.47;;
73283;SDS011;61519;60.050;18.582;2024-03-02T10:53:29;10.88;;;5.50;;
73283;SDS011;61519;60.050;18.582;2024-03-02T10:55:57;8.97;;;4.43;;
73283;SDS011;61519;60.050;18.582;2024-03-02T10:58:27;11.52;;;4.88;;
73283;SDS011;61519;60.050;18.582;2024-03-02T11:00:58;10.52;;;5.03;;
73283;SDS011;61519;60.050;18.582;2024-03-02T11:03:27;13.03;;;5.37;;
73283;SDS011;61519;60.050;18.582;2024-03-02T11:05:54;11.63;;;5.70;;
73283;SDS011;61519;60.050;18.582;2024-03-02T11:08:20;12.85;;;5.45;;
73283;SDS011;61519;60.050;18.582;2024-03-02T11:10:50;14.05;;;4.85;;
73283;SDS011;61519;60.050;18.582;2024-03-02T11:13:18;11.23;;;5.78;;
73283;SDS011;61519;60.050;18.582;2024-03-02T11:15:54;11.55;;;4.95;;
73283;SDS011;61519;60.050;18.582;2024-03-02T11:18:24;13.05;;;5.32;;
73283;SDS011;61519;60.050;18.582;2024-03-02T11:20:50;10.97;;;4.83;;
73283;SDS011;61519;60.050;18.582;2024-03-02T11:23:16;11.00;;;5.63;;
73283;SDS011;61519;60.050;18.582;2024-03-02T11:25:41;11.47;;;5.00;;
73283;SDS011;61519;60.050;18.582;2024-03-02T11:28:07;12.67;;;5.47;;
73283;SDS011;61519;60.050;18.582;2024-03-02T11:33:03;13.37;;;5.43;;
73283;SDS011;61519;60.050;18.582;2024-03-02T11:35:35;12.95;;;5.80;;
73283;SDS011;61519;60.050;18.582;2024-03-02T11:38:08;9.73;;;4.53;;
73283;SDS011;61519;60.050;18.582;2024-03-02T11:40:34;9.70;;;4.75;;
73283;SDS011;61519;60.050;18.582;2024-03-02T11:43:00;13.63;;;5.60;;
73283;SDS011;61519;60.050;18.582;2024-03-02T11:45:26;9.60;;;4.78;;
73283;SDS011;61519;60.050;18.582;2024-03-02T11:47:55;15.37;;;5.27;;
73283;SDS011;61519;60.050;18.582;2024-03-02T11:50:30;9.63;;;4.18;;
73283;SDS011;61519;60.050;18.582;2024-03-02T11:53:00;11.88;;;4.57;;
73283;SDS011;61519;60.050;18.582;2024-03-02T11:55:25;12.83;;;4.90;;
73283;SDS011;61519;60.050;18.582;2024-03-02T11:57:54;11.07;;;5.00;;
73283;SDS011;61519;60.050;18.582;2024-03-02T12:00:20;11.82;;;5.25;;
73283;SDS011;61519;60.050;18.582;2024-03-02T12:02:46;11.32;;;4.80;;
73283;SDS011;61519;60.050;18.582;2024-03-02T12:05:24;12.23;;;5.15;;
73283;SDS011;61519;60.050;18.582;2024-03-02T12:07:54;12.70;;;5.70;;
73283;SDS011;61519;60.050;18.582;2024-03-02T12:10:21;11.73;;;5.15;;
73283;SDS011;61519;60.050;18.582;2024-03-02T12:12:47;13.73;;;5.27;;
73283;SDS011;61519;60.050;18.582;2024-03-02T12:15:12;10.23;;;4.93;;
73283;SDS011;61519;60.050;18.582;2024-03-02T12:17:38;8.85;;;4.38;;
73283;SDS011;61519;60.050;18.582;2024-03-02T12:20:04;12.32;;;5.22;;
73283;SDS011;61519;60.050;18.582;2024-03-02T12:22:32;13.60;;;4.90;;
73283;SDS011;61519;60.050;18.582;2024-03-02T12:24:57;10.48;;;4.68;;
73283;SDS011;61519;60.050;18.582;2024-03-02T12:27:22;10.48;;;5.20;;
73283;SDS011;61519;60.050;18.582;2024-03-02T12:29:48;10.03;;;4.73;;
73283;SDS011;61519;60.050;18.582;2024-03-02T12:32:13;12.30;;;4.57;;
73283;SDS011;61519;60.050;18.582;2024-03-02T12:34:39;11.82;;;5.25;;
73283;SDS011;61519;60.050;18.582;2024-03-02T12:37:05;11.17;;;4.47;;
73283;SDS011;61519;60.050;18.582;2024-03-02T12:39:30;10.00;;;4.73;;
73283;SDS011;61519;60.050;18.582;2024-03-02T12:41:57;11.35;;;5.07;;
73283;SDS011;61519;60.050;18.582;2024-03-02T12:44:23;10.53;;;4.90;;
73283;SDS011;61519;60.050;18.582;2024-03-02T12:46:48;11.37;;;4.10;;
73283;SDS011;61519;60.050;18.582;2024-03-02T12:49:14;10.23;;;4.80;;
73283;SDS011;61519;60.050;18.582;2024-03-02T12:51:45;10.30;;;4.90;;
73283;SDS011;61519;60.050;18.582;2024-03-02T12:54:16;11.52;;;4.95;;
73283;SDS011;61519;60.050;18.582;2024-03-02T12:56:42;11.75;;;4.65;;
73283;SDS011;61519;60.050;18.582;2024-03-02T12:59:16;12.07;;;5.22;;
73283;SDS011;61519;60.050;18.582;2024-03-02T13:01:55;13.00;;;4.30;;
73283;SDS011;61519;60.050;18.582;2024-03-02T13:04:28;8.77;;;4.35;;
73283;SDS011;61519;60.050;18.582;2024-03-02T13:06:54;12.55;;;4.40;;
73283;SDS011;61519;60.050;18.582;2024-03-02T13:09:22;11.40;;;5.05;;
73283;SDS011;61519;60.050;18.582;2024-03-02T13:11:48;10.17;;;4.50;;
73283;SDS011;61519;60.050;18.582;2024-03-02T13:14:14;18.08;;;4.88;;
73283;SDS011;61519;60.050;18.582;2024-03-02T13:16:40;11.70;;;4.60;;
73283;SDS011;61519;60.050;18.582;2024-03-02T13:19:09;12.52;;;4.28;;
73283;SDS011;61519;60.050;18.582;2024-03-02T13:21:36;11.88;;;5.50;;
73283;SDS011;61519;60.050;18.582;2024-03-02T13:24:02;11.03;;;4.40;;
73283;SDS011;61519;60.050;18.582;2024-03-02T13:26:28;9.57;;;4.75;;
73283;SDS011;61519;60.050;18.582;2024-03-02T13:28:54;11.97;;;4.10;;
73283;SDS011;61519;60.050;18.582;2024-03-02T13:31:19;9.80;;;5.00;;
73283;SDS011;61519;60.050;18.582;2024-03-02T13:33:45;10.15;;;4.95;;
73283;SDS011;61519;60.050;18.582;2024-03-02T13:36:11;10.38;;;4.93;;
73283;SDS011;61519;60.050;18.582;2024-03-02T13:38:37;9.97;;;4.30;;
73283;SDS011;61519;60.050;18.582;2024-03-02T13:41:02;11.57;;;5.27;;
73283;SDS011;61519;60.050;18.582;2024-03-02T13:43:28;12.00;;;5.37;;
73283;SDS011;61519;60.050;18.582;2024-03-02T13:45:56;8.13;;;4.25;;
73283;SDS011;61519;60.050;18.582;2024-03-02T13:48:23;9.27;;;4.25;;
73283;SDS011;61519;60.050;18.582;2024-03-02T13:50:50;9.63;;;4.27;;
73283;SDS011;61519;60.050;18.582;2024-03-02T13:53:17;13.60;;;4.78;;
73283;SDS011;61519;60.050;18.582;2024-03-02T13:55:43;12.03;;;4.63;;
73283;SDS011;61519;60.050;18.582;2024-03-02T13:58:09;14.43;;;4.95;;
73283;SDS011;61519;60.050;18.582;2024-03-02T14:00:34;11.00;;;5.75;;
73283;SDS011;61519;60.050;18.582;2024-03-02T14:03:00;7.95;;;4.07;;
73283;SDS011;61519;60.050;18.582;2024-03-02T14:05:26;9.17;;;4.47;;
73283;SDS011;61519;60.050;18.582;2024-03-02T14:07:51;14.77;;;5.40;;
73283;SDS011;61519;60.050;18.582;2024-03-02T14:10:17;11.55;;;4.75;;
73283;SDS011;61519;60.050;18.582;2024-03-02T14:12:47;11.48;;;4.95;;
73283;SDS011;61519;60.050;18.582;2024-03-02T14:15:12;11.55;;;4.15;;
73283;SDS011;61519;60.050;18.582;2024-03-02T14:17:37;8.63;;;4.73;;
73283;SDS011;61519;60.050;18.582;2024-03-02T14:20:03;12.93;;;4.70;;
73283;SDS011;61519;60.050;18.582;2024-03-02T14:22:30;10.75;;;4.72;;
73283;SDS011;61519;60.050;18.582;2024-03-02T14:24:55;12.85;;;4.53;;
73283;SDS011;61519;60.050;18.582;2024-03-02T14:27:21;11.83;;;4.97;;
73283;SDS011;61519;60.050;18.582;2024-03-02T14:29:46;8.73;;;4.00;;
73283;SDS011;61519;60.050;18.582;2024-03-02T14:32:12;13.60;;;4.70;;